createdAt,value
2024-01-30T00:00:24.544Z,877.00
2024-01-30T00:01:24.711Z,876.00
2024-01-30T00:02:24.647Z,877.00
2024-01-30T00:03:24.709Z,877.00
2024-01-30T00:04:24.839Z,875.00
2024-01-30T00:05:24.872Z,872.00
2024-01-30T00:06:24.895Z,874.00
2024-01-30T00:07:25.022Z,876.00
2024-01-30T00:08:25.039Z,874.00
2024-01-30T00:09:25.021Z,874.00
2024-01-30T00:10:25.168Z,874.00
2024-01-30T00:11:25.138Z,874.00
2024-01-30T00:12:25.198Z,874.00
2024-01-30T00:13:25.342Z,874.00
2024-01-30T00:14:25.323Z,875.00
2024-01-30T00:15:25.360Z,874.00
2024-01-30T00:16:25.633Z,871.00
2024-01-30T00:17:25.529Z,873.00
2024-01-30T00:18:25.554Z,875.00
2024-01-30T00:19:25.798Z,874.00
2024-01-30T00:20:25.684Z,874.00
2024-01-30T00:21:25.733Z,872.00
2024-01-30T00:22:25.832Z,872.00
2024-01-30T00:23:25.847Z,874.00
2024-01-30T00:24:25.871Z,876.00
2024-01-30T00:25:25.982Z,874.00
2024-01-30T00:26:25.990Z,875.00
2024-01-30T00:27:26.036Z,874.00
2024-01-30T00:28:26.175Z,874.00
2024-01-30T00:29:26.183Z,875.00
2024-01-30T00:30:26.229Z,874.00
2024-01-30T00:31:26.302Z,874.00
2024-01-30T00:32:26.349Z,871.00
2024-01-30T00:33:26.503Z,870.00
2024-01-30T00:34:26.533Z,870.00
2024-01-30T00:35:26.505Z,873.00
2024-01-30T00:36:26.568Z,874.00
2024-01-30T00:37:26.656Z,876.00
2024-01-30T00:38:26.687Z,875.00
2024-01-30T00:39:26.743Z,875.00
2024-01-30T00:40:26.835Z,873.00
2024-01-30T00:41:26.852Z,874.00
2024-01-30T00:42:26.918Z,873.00
2024-01-30T00:43:26.979Z,874.00
2024-01-30T00:44:27.113Z,873.00
2024-01-30T00:45:27.091Z,873.00
2024-01-30T00:46:27.243Z,872.00
2024-01-30T00:47:27.198Z,873.00
2024-01-30T00:48:27.265Z,874.00
2024-01-30T00:49:27.417Z,876.00
2024-01-30T00:50:27.427Z,877.00
2024-01-30T00:51:27.451Z,877.00
2024-01-30T00:52:27.572Z,876.00
2024-01-30T00:53:27.574Z,876.00
2024-01-30T00:54:27.636Z,878.00
2024-01-30T00:55:27.764Z,877.00
2024-01-30T00:56:27.774Z,876.00
2024-01-30T00:57:27.844Z,874.00
2024-01-30T00:58:28.151Z,874.00
2024-01-30T00:59:27.962Z,872.00
2024-01-30T01:00:28.025Z,870.00
2024-01-30T01:01:28.316Z,868.00
2024-01-30T01:02:28.156Z,868.00
2024-01-30T01:03:28.229Z,871.00
2024-01-30T01:04:28.401Z,872.00
2024-01-30T01:05:28.362Z,874.00
2024-01-30T01:06:28.481Z,875.00
2024-01-30T01:07:28.510Z,874.00
2024-01-30T01:08:28.546Z,873.00
2024-01-30T01:09:28.617Z,875.00
2024-01-30T01:10:28.736Z,874.00
2024-01-30T01:11:28.756Z,872.00
2024-01-30T01:12:28.830Z,868.00
2024-01-30T01:13:28.923Z,870.00
2024-01-30T01:14:28.973Z,870.00
2024-01-30T01:15:30.443Z,870.00
2024-01-30T01:16:29.220Z,870.00
2024-01-30T01:17:29.147Z,871.00
2024-01-30T01:18:29.263Z,872.00
2024-01-30T01:19:29.559Z,870.00
2024-01-30T01:20:29.332Z,868.00
2024-01-30T01:21:29.372Z,867.00
2024-01-30T01:22:29.432Z,865.00
2024-01-30T01:23:29.458Z,866.00
2024-01-30T01:24:29.536Z,866.00
2024-01-30T01:25:29.596Z,866.00
2024-01-30T01:26:29.652Z,867.00
2024-01-30T01:27:29.716Z,866.00
2024-01-30T01:28:29.828Z,865.00
2024-01-30T01:29:29.973Z,867.00
2024-01-30T01:30:29.880Z,866.00
2024-01-30T01:31:30.068Z,865.00
2024-01-30T01:32:30.020Z,864.00
2024-01-30T01:33:30.127Z,866.00
2024-01-30T01:34:31.048Z,865.00
2024-01-30T01:35:30.255Z,867.00
2024-01-30T01:36:30.272Z,867.00
2024-01-30T01:37:30.306Z,867.00
2024-01-30T01:38:30.393Z,865.00
2024-01-30T01:39:30.421Z,863.00
2024-01-30T01:40:30.522Z,864.00
2024-01-30T01:41:30.554Z,867.00
2024-01-30T01:42:30.623Z,867.00
2024-01-30T01:43:30.731Z,866.00
2024-01-30T01:44:30.734Z,870.00
2024-01-30T01:45:30.821Z,871.00
2024-01-30T01:46:30.884Z,868.00
2024-01-30T01:47:30.982Z,870.00
2024-01-30T01:48:31.116Z,871.00
2024-01-30T01:49:31.175Z,872.00
2024-01-30T01:50:31.334Z,871.00
2024-01-30T01:51:31.264Z,872.00
2024-01-30T01:52:31.343Z,872.00
2024-01-30T01:53:31.333Z,873.00
2024-01-30T01:54:31.397Z,873.00
2024-01-30T01:55:31.480Z,875.00
2024-01-30T01:56:31.558Z,878.00
2024-01-30T01:57:31.615Z,877.00
2024-01-30T01:58:31.690Z,874.00
2024-01-30T01:59:31.738Z,875.00
2024-01-30T02:00:31.817Z,873.00
2024-01-30T02:01:31.914Z,870.00
2024-01-30T02:02:32.019Z,869.00
2024-01-30T02:03:32.079Z,869.00
2024-01-30T02:04:32.214Z,867.00
2024-01-30T02:05:32.153Z,865.00
2024-01-30T02:06:32.237Z,863.00
2024-01-30T02:07:32.338Z,860.00
2024-01-30T02:08:32.372Z,864.00
2024-01-30T02:09:32.418Z,865.00
2024-01-30T02:10:32.519Z,865.00
2024-01-30T02:11:32.562Z,864.00
2024-01-30T02:12:32.686Z,866.00
2024-01-30T02:13:32.709Z,864.00
2024-01-30T02:14:32.766Z,863.00
2024-01-30T02:15:32.844Z,865.00
2024-01-30T02:16:32.924Z,867.00
2024-01-30T02:17:33.107Z,871.00
2024-01-30T02:18:33.045Z,870.00
2024-01-30T02:19:33.238Z,870.00
2024-01-30T02:20:33.226Z,868.00
2024-01-30T02:21:38.283Z,872.00
2024-01-30T02:22:33.236Z,873.00
2024-01-30T02:23:33.236Z,873.00
2024-01-30T02:24:33.243Z,875.00
2024-01-30T02:25:33.249Z,875.00
2024-01-30T02:26:43.317Z,875.00
2024-01-30T02:27:33.238Z,875.00
2024-01-30T02:28:33.263Z,876.00
2024-01-30T02:29:33.277Z,877.00
2024-01-30T02:30:33.265Z,876.00
2024-01-30T02:31:33.266Z,875.00
2024-01-30T02:32:33.282Z,875.00
2024-01-30T02:33:33.298Z,878.00
2024-01-30T02:34:33.375Z,878.00
2024-01-30T02:35:33.263Z,876.00
2024-01-30T02:36:33.261Z,874.00
2024-01-30T02:37:33.272Z,870.00
2024-01-30T02:38:33.281Z,871.00
2024-01-30T02:39:33.294Z,871.00
2024-01-30T02:40:33.271Z,869.00
2024-01-30T02:41:43.332Z,869.00
2024-01-30T02:42:33.268Z,871.00
2024-01-30T02:43:33.284Z,868.00
2024-01-30T02:44:33.278Z,866.00
2024-01-30T02:45:33.281Z,866.00
2024-01-30T02:46:33.294Z,867.00
2024-01-30T02:47:33.333Z,867.00
2024-01-30T02:48:33.295Z,866.00
2024-01-30T02:49:33.331Z,868.00
2024-01-30T02:50:33.307Z,869.00
2024-01-30T02:51:45.114Z,872.00
2024-01-30T02:52:33.293Z,873.00
2024-01-30T02:53:33.297Z,873.00
2024-01-30T02:54:33.281Z,873.00
2024-01-30T02:55:33.288Z,874.00
2024-01-30T02:56:33.292Z,872.00
2024-01-30T02:57:33.286Z,871.00
2024-01-30T02:58:33.338Z,872.00
2024-01-30T02:59:33.370Z,872.00
2024-01-30T03:00:33.285Z,873.00
2024-01-30T03:01:33.407Z,868.00
2024-01-30T03:02:33.293Z,866.00
2024-01-30T03:03:33.324Z,865.00
2024-01-30T03:04:33.375Z,864.00
2024-01-30T03:05:33.315Z,864.00
2024-01-30T03:06:33.313Z,863.00
2024-01-30T03:07:33.352Z,864.00
2024-01-30T03:08:33.300Z,865.00
2024-01-30T03:09:33.297Z,865.00
2024-01-30T03:10:33.381Z,863.00
2024-01-30T03:11:33.300Z,863.00
2024-01-30T03:12:33.324Z,863.00
2024-01-30T03:13:33.325Z,862.00
2024-01-30T03:14:33.317Z,864.00
2024-01-30T03:15:33.344Z,864.00
2024-01-30T03:16:33.341Z,862.00
2024-01-30T03:17:33.328Z,861.00
2024-01-30T03:18:33.358Z,860.00
2024-01-30T03:19:33.418Z,861.00
2024-01-30T03:20:33.356Z,861.00
2024-01-30T03:21:33.316Z,859.00
2024-01-30T03:22:33.339Z,858.00
2024-01-30T03:23:33.353Z,857.00
2024-01-30T03:24:33.320Z,855.00
2024-01-30T03:25:33.329Z,854.00
2024-01-30T03:26:33.340Z,855.00
2024-01-30T03:27:33.390Z,857.00
2024-01-30T03:28:33.331Z,855.00
2024-01-30T03:29:33.329Z,854.00
2024-01-30T03:30:33.342Z,853.00
2024-01-30T03:31:33.484Z,852.00
2024-01-30T03:32:33.469Z,853.00
2024-01-30T03:33:33.429Z,852.00
2024-01-30T03:34:33.530Z,850.00
2024-01-30T03:35:33.352Z,849.00
2024-01-30T03:36:33.347Z,848.00
2024-01-30T03:37:33.459Z,849.00
2024-01-30T03:38:33.344Z,850.00
2024-01-30T03:39:33.356Z,851.00
2024-01-30T03:40:33.365Z,853.00
2024-01-30T03:41:33.384Z,855.00
2024-01-30T03:42:33.355Z,855.00
2024-01-30T03:43:33.387Z,853.00
2024-01-30T03:44:33.362Z,851.00
2024-01-30T03:45:33.401Z,851.00
2024-01-30T03:46:33.374Z,852.00
2024-01-30T03:47:33.385Z,850.00
2024-01-30T03:48:33.375Z,850.00
2024-01-30T03:49:33.502Z,850.00
2024-01-30T03:50:33.412Z,850.00
2024-01-30T03:51:33.391Z,851.00
2024-01-30T03:52:33.401Z,848.00
2024-01-30T03:53:33.361Z,845.00
2024-01-30T03:54:33.362Z,844.00
2024-01-30T03:55:33.374Z,846.00
2024-01-30T03:56:33.369Z,849.00
2024-01-30T03:57:33.382Z,849.00
2024-01-30T03:58:33.366Z,851.00
2024-01-30T03:59:33.365Z,854.00
2024-01-30T04:00:34.004Z,855.00
2024-01-30T04:01:33.512Z,852.00
2024-01-30T04:02:33.425Z,854.00
2024-01-30T04:03:33.431Z,856.00
2024-01-30T04:04:33.615Z,858.00
2024-01-30T04:05:33.421Z,857.00
2024-01-30T04:06:33.377Z,855.00
2024-01-30T04:07:33.409Z,852.00
2024-01-30T04:08:33.403Z,854.00
2024-01-30T04:09:33.394Z,850.00
2024-01-30T04:10:33.386Z,850.00
2024-01-30T04:11:33.410Z,850.00
2024-01-30T04:12:33.414Z,852.00
2024-01-30T04:13:33.433Z,853.00
2024-01-30T04:14:33.396Z,852.00
2024-01-30T04:15:33.396Z,849.00
2024-01-30T04:16:33.386Z,849.00
2024-01-30T04:17:33.418Z,847.00
2024-01-30T04:18:33.396Z,848.00
2024-01-30T04:19:33.459Z,848.00
2024-01-30T04:20:33.393Z,848.00
2024-01-30T04:21:33.415Z,847.00
2024-01-30T04:22:33.401Z,847.00
2024-01-30T04:23:33.393Z,846.00
2024-01-30T04:24:33.515Z,847.00
2024-01-30T04:25:33.490Z,845.00
2024-01-30T04:26:33.410Z,847.00
2024-01-30T04:27:33.411Z,847.00
2024-01-30T04:28:33.427Z,845.00
2024-01-30T04:29:33.425Z,845.00
2024-01-30T04:30:33.407Z,842.00
2024-01-30T04:31:38.429Z,840.00
2024-01-30T04:32:33.445Z,839.00
2024-01-30T04:33:33.446Z,840.00
2024-01-30T04:34:33.501Z,841.00
2024-01-30T04:35:33.441Z,840.00
2024-01-30T04:36:33.449Z,841.00
2024-01-30T04:37:40.731Z,844.00
2024-01-30T04:38:40.727Z,844.00
2024-01-30T04:39:40.774Z,837.00
2024-01-30T04:40:40.730Z,838.00
2024-01-30T04:41:40.724Z,837.00
2024-01-30T04:42:40.795Z,836.00
2024-01-30T04:43:40.734Z,836.00
2024-01-30T04:44:40.724Z,837.00
2024-01-30T04:45:40.743Z,838.00
2024-01-30T04:46:40.736Z,836.00
2024-01-30T04:47:40.733Z,832.00
2024-01-30T04:48:40.866Z,830.00
2024-01-30T04:49:40.855Z,829.00
2024-01-30T04:50:40.739Z,829.00
2024-01-30T04:51:40.756Z,830.00
2024-01-30T04:52:40.741Z,830.00
2024-01-30T04:53:40.752Z,829.00
2024-01-30T04:54:40.802Z,833.00
2024-01-30T04:55:40.792Z,835.00
2024-01-30T04:56:40.783Z,834.00
2024-01-30T04:57:40.780Z,834.00
2024-01-30T04:58:40.752Z,834.00
2024-01-30T04:59:40.766Z,835.00
2024-01-30T05:00:40.812Z,834.00
2024-01-30T05:01:40.820Z,832.00
2024-01-30T05:02:40.752Z,832.00
2024-01-30T05:03:40.825Z,830.00
2024-01-30T05:04:40.867Z,832.00
2024-01-30T05:05:40.768Z,833.00
2024-01-30T05:06:40.784Z,833.00
2024-01-30T05:07:40.749Z,835.00
2024-01-30T05:08:40.756Z,835.00
2024-01-30T05:09:40.810Z,835.00
2024-01-30T05:10:40.816Z,835.00
2024-01-30T05:11:40.761Z,835.00
2024-01-30T05:12:40.820Z,832.00
2024-01-30T05:13:40.762Z,834.00
2024-01-30T05:14:40.756Z,834.00
2024-01-30T05:15:40.829Z,832.00
2024-01-30T05:16:40.773Z,830.00
2024-01-30T05:17:40.794Z,828.00
2024-01-30T05:18:40.848Z,830.00
2024-01-30T05:19:40.823Z,828.00
2024-01-30T05:20:40.775Z,829.00
2024-01-30T05:21:40.769Z,829.00
2024-01-30T05:22:40.769Z,827.00
2024-01-30T05:23:40.775Z,829.00
2024-01-30T05:24:40.805Z,831.00
2024-01-30T05:25:40.777Z,828.00
2024-01-30T05:26:42.385Z,828.00
2024-01-30T05:27:40.792Z,828.00
2024-01-30T05:28:40.776Z,826.00
2024-01-30T05:29:40.798Z,828.00
2024-01-30T05:30:40.787Z,829.00
2024-01-30T05:31:40.890Z,829.00
2024-01-30T05:32:40.936Z,830.00
2024-01-30T05:33:40.971Z,833.00
2024-01-30T05:34:40.899Z,832.00
2024-01-30T05:35:40.805Z,833.00
2024-01-30T05:36:40.841Z,833.00
2024-01-30T05:37:40.802Z,833.00
2024-01-30T05:38:40.790Z,831.00
2024-01-30T05:39:40.815Z,831.00
2024-01-30T05:40:40.805Z,830.00
2024-01-30T05:41:40.822Z,829.00
2024-01-30T05:42:40.861Z,829.00
2024-01-30T05:43:40.803Z,831.00
2024-01-30T05:44:40.788Z,829.00
2024-01-30T05:45:40.825Z,830.00
2024-01-30T05:46:40.835Z,831.00
2024-01-30T05:47:40.830Z,829.00
2024-01-30T05:48:40.847Z,833.00
2024-01-30T05:49:40.815Z,829.00
2024-01-30T05:50:40.832Z,827.00
2024-01-30T05:51:40.887Z,826.00
2024-01-30T05:52:40.860Z,828.00
2024-01-30T05:53:40.812Z,828.00
2024-01-30T05:54:40.839Z,827.00
2024-01-30T05:55:40.835Z,826.00
2024-01-30T05:56:40.820Z,825.00
2024-01-30T05:57:40.868Z,824.00
2024-01-30T05:58:40.825Z,823.00
2024-01-30T05:59:42.122Z,821.00
2024-01-30T06:00:40.953Z,823.00
2024-01-30T06:01:40.869Z,826.00
2024-01-30T06:02:40.829Z,826.00
2024-01-30T06:03:40.891Z,828.00
2024-01-30T06:04:40.925Z,826.00
2024-01-30T06:05:40.902Z,825.00
2024-01-30T06:06:40.904Z,824.00
2024-01-30T06:07:41.023Z,822.00
2024-01-30T06:08:40.841Z,824.00
2024-01-30T06:09:40.878Z,826.00
2024-01-30T06:10:40.836Z,827.00
2024-01-30T06:11:40.841Z,826.00
2024-01-30T06:12:40.894Z,828.00
2024-01-30T06:13:40.912Z,826.00
2024-01-30T06:14:42.389Z,825.00
2024-01-30T06:15:41.131Z,823.00
2024-01-30T06:16:41.105Z,824.00
2024-01-30T06:17:41.151Z,822.00
2024-01-30T06:18:41.180Z,822.00
2024-01-30T06:19:41.309Z,824.00
2024-01-30T06:20:41.245Z,823.00
2024-01-30T06:21:41.606Z,824.00
2024-01-30T06:22:41.242Z,826.00
2024-01-30T06:23:41.262Z,827.00
2024-01-30T06:24:41.306Z,827.00
2024-01-30T06:25:41.295Z,826.00
2024-01-30T06:26:41.281Z,819.00
2024-01-30T06:27:41.344Z,748.00
2024-01-30T06:28:41.317Z,720.00
2024-01-30T06:29:41.344Z,639.00
2024-01-30T06:30:41.434Z,645.00
2024-01-30T06:31:41.420Z,641.00
2024-01-30T06:32:41.522Z,640.00
2024-01-30T06:33:41.606Z,633.00
2024-01-30T06:34:41.645Z,630.00
2024-01-30T06:35:43.984Z,638.00
2024-01-30T06:36:41.860Z,640.00
2024-01-30T06:37:41.591Z,666.00
2024-01-30T06:38:41.602Z,679.00
2024-01-30T06:39:41.631Z,742.00
2024-01-30T06:40:41.610Z,724.00
2024-01-30T06:41:41.631Z,731.00
2024-01-30T06:42:41.645Z,739.00
2024-01-30T06:43:41.611Z,769.00
2024-01-30T06:44:41.610Z,787.00
2024-01-30T06:45:41.748Z,799.00
2024-01-30T06:46:42.366Z,815.00
2024-01-30T06:47:41.650Z,896.00
2024-01-30T06:48:41.714Z,899.00
2024-01-30T06:49:41.681Z,913.00
2024-01-30T06:50:41.646Z,950.00
2024-01-30T06:51:41.701Z,980.00
2024-01-30T06:52:41.616Z,996.00
2024-01-30T06:53:41.616Z,1029.00
2024-01-30T06:54:41.683Z,1078.00
2024-01-30T06:55:41.644Z,1147.00
2024-01-30T06:56:41.624Z,1159.00
2024-01-30T06:57:41.662Z,1206.00
2024-01-30T06:58:41.647Z,1238.00
2024-01-30T06:59:41.630Z,1257.00
2024-01-30T07:00:41.710Z,1258.00
2024-01-30T07:01:41.676Z,1258.00
2024-01-30T07:02:41.626Z,1254.00
2024-01-30T07:03:41.726Z,1254.00
2024-01-30T07:04:45.390Z,1253.00
2024-01-30T07:05:42.640Z,1256.00
2024-01-30T07:06:41.726Z,1261.00
2024-01-30T07:07:41.673Z,1261.00
2024-01-30T07:08:41.626Z,1260.00
2024-01-30T07:09:41.657Z,1260.00
2024-01-30T07:10:41.669Z,1260.00
2024-01-30T07:11:41.666Z,1260.00
2024-01-30T07:12:41.674Z,1260.00
2024-01-30T07:13:41.665Z,1261.00
2024-01-30T07:14:41.634Z,1262.00
2024-01-30T07:15:41.667Z,1261.00
2024-01-30T07:16:41.665Z,1261.00
2024-01-30T07:17:41.726Z,1263.00
2024-01-30T07:18:41.852Z,1267.00
2024-01-30T07:19:41.954Z,1269.00
2024-01-30T07:20:41.931Z,1271.00
2024-01-30T07:21:42.068Z,1275.00
2024-01-30T07:22:42.047Z,1275.00
2024-01-30T07:23:42.102Z,1278.00
2024-01-30T07:24:42.167Z,1278.00
2024-01-30T07:25:42.240Z,1276.00
2024-01-30T07:26:42.297Z,1279.00
2024-01-30T07:27:42.410Z,1279.00
2024-01-30T07:28:42.440Z,1280.00
2024-01-30T07:29:42.503Z,1281.00
2024-01-30T07:30:42.597Z,1283.00
2024-01-30T07:31:42.722Z,1285.00
2024-01-30T07:32:42.708Z,1285.00
2024-01-30T07:33:42.867Z,1286.00
2024-01-30T07:34:53.273Z,1284.00
2024-01-30T07:35:43.940Z,1285.00
2024-01-30T07:36:42.925Z,1286.00
2024-01-30T07:37:42.914Z,1287.00
2024-01-30T07:38:42.826Z,1286.00
2024-01-30T07:39:42.887Z,1286.00
2024-01-30T07:40:42.844Z,1286.00
2024-01-30T07:41:42.833Z,1288.00
2024-01-30T07:42:42.870Z,1289.00
2024-01-30T07:43:42.845Z,1295.00
2024-01-30T07:44:42.828Z,1296.00
2024-01-30T07:45:42.919Z,1294.00
2024-01-30T07:46:42.898Z,1290.00
2024-01-30T07:47:42.967Z,1347.00
2024-01-30T07:48:43.047Z,1186.00
2024-01-30T07:49:43.193Z,1172.00
2024-01-30T07:50:43.197Z,1183.00
2024-01-30T07:51:43.245Z,1213.00
2024-01-30T07:52:43.181Z,1354.00
2024-01-30T07:53:43.246Z,1382.00
2024-01-30T07:54:43.275Z,1408.00
2024-01-30T07:55:43.290Z,1430.00
2024-01-30T07:56:43.284Z,1443.00
2024-01-30T07:57:43.336Z,1538.00
2024-01-30T07:58:43.312Z,1515.00
2024-01-30T07:59:43.287Z,1526.00
2024-01-30T08:00:43.411Z,1527.00
2024-01-30T08:01:43.320Z,1537.00
2024-01-30T08:02:43.293Z,1550.00
2024-01-30T08:03:43.334Z,1570.00
2024-01-30T08:04:43.551Z,1577.00
2024-01-30T08:05:43.390Z,1584.00
2024-01-30T08:06:44.522Z,1615.00
2024-01-30T08:07:43.365Z,1626.00
2024-01-30T08:08:43.303Z,1630.00
2024-01-30T08:09:43.399Z,1631.00
2024-01-30T08:10:43.313Z,1636.00
2024-01-30T08:11:43.362Z,1645.00
2024-01-30T08:12:43.440Z,1665.00
2024-01-30T08:13:43.501Z,1685.00
2024-01-30T08:14:43.522Z,1778.00
2024-01-30T08:15:43.587Z,1762.00
2024-01-30T08:16:43.557Z,1769.00
2024-01-30T08:17:43.574Z,1781.00
2024-01-30T08:18:43.677Z,1806.00
2024-01-30T08:19:43.757Z,1818.00
2024-01-30T08:20:43.586Z,1819.00
2024-01-30T08:21:43.662Z,1828.00
2024-01-30T08:22:43.629Z,1839.00
2024-01-30T08:23:43.672Z,1855.00
2024-01-30T08:24:43.709Z,1898.00
2024-01-30T08:25:43.756Z,1916.00
2024-01-30T08:26:43.755Z,1917.00
2024-01-30T08:27:43.907Z,1927.00
2024-01-30T08:28:43.923Z,1936.00
2024-01-30T08:29:43.850Z,1945.00
2024-01-30T08:30:43.884Z,1956.00
2024-01-30T08:31:43.856Z,1968.00
2024-01-30T08:32:43.872Z,1983.00
2024-01-30T08:33:45.130Z,1995.00
2024-01-30T08:34:43.951Z,2009.00
2024-01-30T08:35:43.856Z,2022.00
2024-01-30T08:36:43.900Z,2028.00
2024-01-30T08:37:43.878Z,2048.00
2024-01-30T08:38:43.863Z,2059.00
2024-01-30T08:39:43.902Z,2077.00
2024-01-30T08:40:43.981Z,2089.00
2024-01-30T08:41:44.037Z,2101.00
2024-01-30T08:42:44.090Z,2123.00
2024-01-30T08:43:44.127Z,2150.00
2024-01-30T08:44:44.175Z,2169.00
2024-01-30T08:45:44.233Z,2185.00
2024-01-30T08:46:44.279Z,2203.00
2024-01-30T08:47:44.429Z,2233.00
2024-01-30T08:48:44.518Z,2296.00
2024-01-30T08:49:44.377Z,2258.00
2024-01-30T08:50:44.369Z,2217.00
2024-01-30T08:51:44.490Z,2237.00
2024-01-30T08:52:47.386Z,2252.00
2024-01-30T08:53:44.507Z,2268.00
2024-01-30T08:54:44.543Z,2279.00
2024-01-30T08:55:44.507Z,2276.00
2024-01-30T08:56:44.492Z,2271.00
2024-01-30T08:57:44.496Z,2269.00
2024-01-30T08:58:44.499Z,2266.00
2024-01-30T08:59:44.503Z,2263.00
2024-01-30T09:00:44.574Z,2260.00
2024-01-30T09:01:52.393Z,2251.00
2024-01-30T09:02:45.628Z,2248.00
2024-01-30T09:03:44.629Z,2250.00
2024-01-30T09:04:44.774Z,2251.00
2024-01-30T09:05:44.504Z,2247.00
2024-01-30T09:06:44.606Z,2242.00
2024-01-30T09:07:44.709Z,2238.00
2024-01-30T09:08:44.525Z,2236.00
2024-01-30T09:09:44.565Z,2233.00
2024-01-30T09:10:44.635Z,2224.00
2024-01-30T09:11:44.544Z,2224.00
2024-01-30T09:12:44.575Z,2223.00
2024-01-30T09:13:44.550Z,2223.00
2024-01-30T09:14:44.572Z,2223.00
2024-01-30T09:15:44.572Z,2222.00
2024-01-30T09:16:44.536Z,2219.00
2024-01-30T09:17:44.555Z,2217.00
2024-01-30T09:18:44.626Z,2214.00
2024-01-30T09:19:44.699Z,2212.00
2024-01-30T09:20:44.560Z,2213.00
2024-01-30T09:21:44.606Z,2209.00
2024-01-30T09:22:44.645Z,2207.00
2024-01-30T09:23:44.675Z,2204.00
2024-01-30T09:24:44.780Z,2201.00
2024-01-30T09:25:44.775Z,2199.00
2024-01-30T09:26:44.828Z,2191.00
2024-01-30T09:27:44.871Z,2190.00
2024-01-30T09:28:44.898Z,2190.00
2024-01-30T09:29:44.938Z,2189.00
2024-01-30T09:30:45.008Z,2189.00
2024-01-30T09:31:45.074Z,2189.00
2024-01-30T09:32:45.113Z,2186.00
2024-01-30T09:33:45.209Z,2182.00
2024-01-30T09:34:45.233Z,2175.00
2024-01-30T09:35:45.195Z,2174.00
2024-01-30T09:36:45.278Z,2170.00
2024-01-30T09:37:45.373Z,2168.00
2024-01-30T09:38:45.358Z,2166.00
2024-01-30T09:39:45.421Z,2163.00
2024-01-30T09:40:45.481Z,2161.00
2024-01-30T09:41:45.536Z,2161.00
2024-01-30T09:42:45.601Z,2306.00
2024-01-30T09:43:45.706Z,2187.00
2024-01-30T09:44:45.697Z,2168.00
2024-01-30T09:45:45.868Z,2170.00
2024-01-30T09:46:45.804Z,2163.00
2024-01-30T09:47:46.056Z,2173.00
2024-01-30T09:48:45.964Z,2175.00
2024-01-30T09:49:46.023Z,2178.00
2024-01-30T09:50:46.047Z,2188.00
2024-01-30T09:51:46.089Z,2202.00
2024-01-30T09:52:46.081Z,2221.00
2024-01-30T09:53:46.214Z,2239.00
2024-01-30T09:54:46.175Z,2251.00
2024-01-30T09:55:46.181Z,2267.00
2024-01-30T09:56:46.199Z,2274.00
2024-01-30T09:57:46.269Z,2282.00
2024-01-30T09:58:46.244Z,2293.00
2024-01-30T09:59:46.273Z,2308.00
2024-01-30T10:00:46.351Z,2320.00
2024-01-30T10:01:46.560Z,2321.00
2024-01-30T10:02:46.326Z,2311.00
2024-01-30T10:03:46.374Z,2300.00
2024-01-30T10:04:46.534Z,2297.00
2024-01-30T10:05:46.362Z,2294.00
2024-01-30T10:06:46.443Z,2293.00
2024-01-30T10:07:46.550Z,2295.00
2024-01-30T10:08:46.443Z,2292.00
2024-01-30T10:09:46.484Z,2291.00
2024-01-30T10:10:46.485Z,2291.00
2024-01-30T10:11:46.525Z,2293.00
2024-01-30T10:12:46.551Z,2294.00
2024-01-30T10:13:46.558Z,2296.00
2024-01-30T10:14:46.595Z,2300.00
2024-01-30T10:15:46.671Z,2303.00
2024-01-30T10:16:46.660Z,2304.00
2024-01-30T10:17:46.715Z,2300.00
2024-01-30T10:18:46.818Z,2297.00
2024-01-30T10:19:46.815Z,2296.00
2024-01-30T10:20:46.727Z,2297.00
2024-01-30T10:21:46.804Z,2298.00
2024-01-30T10:22:46.785Z,2303.00
2024-01-30T10:23:46.800Z,2303.00
2024-01-30T10:24:46.852Z,2305.00
2024-01-30T10:25:46.869Z,2301.00
2024-01-30T10:26:46.863Z,2302.00
2024-01-30T10:27:46.919Z,2303.00
2024-01-30T10:28:46.880Z,2304.00
2024-01-30T10:29:46.884Z,2301.00
2024-01-30T10:30:46.930Z,2296.00
2024-01-30T10:31:46.983Z,2291.00
2024-01-30T10:32:47.026Z,2289.00
2024-01-30T10:33:47.193Z,2286.00
2024-01-30T10:34:47.000Z,2283.00
2024-01-30T10:35:46.989Z,2284.00
2024-01-30T10:36:47.075Z,2279.00
2024-01-30T10:37:46.969Z,2274.00
2024-01-30T10:38:46.985Z,2268.00
2024-01-30T10:39:47.234Z,2262.00
2024-01-30T10:40:46.993Z,2255.00
2024-01-30T10:41:47.003Z,2256.00
2024-01-30T10:42:47.126Z,2251.00
2024-01-30T10:43:47.076Z,2248.00
2024-01-30T10:44:47.042Z,2249.00
2024-01-30T10:45:47.064Z,2244.00
2024-01-30T10:46:47.055Z,2236.00
2024-01-30T10:47:47.106Z,2232.00
2024-01-30T10:48:47.164Z,2239.00
2024-01-30T10:49:47.151Z,2246.00
2024-01-30T10:50:51.228Z,2325.00
2024-01-30T10:51:48.111Z,2341.00
2024-01-30T10:52:47.091Z,2499.00
2024-01-30T10:53:47.109Z,2549.00
2024-01-30T10:54:47.126Z,2528.00
2024-01-30T10:55:47.089Z,2552.00
2024-01-30T10:56:47.132Z,2574.00
2024-01-30T10:57:47.144Z,2565.00
2024-01-30T10:58:47.105Z,2490.00
2024-01-30T10:59:47.096Z,2202.00
2024-01-30T11:00:47.171Z,2361.00
2024-01-30T11:01:47.220Z,2329.00
2024-01-30T11:02:47.213Z,2324.00
2024-01-30T11:03:47.312Z,2322.00
2024-01-30T11:04:47.439Z,2274.00
2024-01-30T11:05:47.399Z,2155.00
2024-01-30T11:06:47.554Z,2070.00
2024-01-30T11:07:47.626Z,2077.00
2024-01-30T11:08:47.562Z,2106.00
2024-01-30T11:09:47.608Z,2089.00
2024-01-30T11:10:48.691Z,1883.00
2024-01-30T11:11:47.708Z,1795.00
2024-01-30T11:12:47.986Z,1784.00
2024-01-30T11:13:47.838Z,1779.00
2024-01-30T11:14:47.881Z,1788.00
2024-01-30T11:15:47.911Z,1674.00
2024-01-30T11:16:47.899Z,1680.00
2024-01-30T11:17:47.954Z,1634.00
2024-01-30T11:18:48.023Z,1727.00
2024-01-30T11:19:48.054Z,1717.00
2024-01-30T11:20:47.920Z,1718.00
2024-01-30T11:21:47.956Z,1723.00
2024-01-30T11:22:48.080Z,1718.00
2024-01-30T11:23:48.085Z,1711.00
2024-01-30T11:24:48.162Z,1702.00
2024-01-30T11:25:48.214Z,1696.00
2024-01-30T11:26:48.295Z,1691.00
2024-01-30T11:27:48.472Z,1682.00
2024-01-30T11:28:48.416Z,1674.00
2024-01-30T11:29:48.461Z,1664.00
2024-01-30T11:30:48.620Z,1663.00
2024-01-30T11:31:48.570Z,1646.00
2024-01-30T11:32:48.702Z,1629.00
2024-01-30T11:33:48.780Z,1594.00
2024-01-30T11:34:48.800Z,1599.00
2024-01-30T11:35:48.794Z,1527.00
2024-01-30T11:36:48.839Z,1471.00
2024-01-30T11:37:48.888Z,1488.00
2024-01-30T11:38:48.920Z,1504.00
2024-01-30T11:39:49.010Z,1496.00
2024-01-30T11:40:49.090Z,1510.00
2024-01-30T11:41:49.023Z,1457.00
2024-01-30T11:42:49.123Z,1429.00
2024-01-30T11:43:49.124Z,1438.00
2024-01-30T11:44:50.180Z,1444.00
2024-01-30T11:45:49.265Z,1444.00
2024-01-30T11:46:49.279Z,1438.00
2024-01-30T11:47:49.396Z,1425.00
2024-01-30T11:48:49.455Z,1408.00
2024-01-30T11:49:49.527Z,1395.00
2024-01-30T11:50:49.513Z,1386.00
2024-01-30T11:51:49.626Z,1373.00
2024-01-30T11:52:49.634Z,1359.00
2024-01-30T11:53:49.672Z,1346.00
2024-01-30T11:54:49.776Z,1335.00
2024-01-30T11:55:49.804Z,1329.00
2024-01-30T11:56:49.866Z,1322.00
2024-01-30T11:57:49.986Z,1311.00
2024-01-30T11:58:50.010Z,1305.00
2024-01-30T11:59:50.070Z,1296.00
2024-01-30T12:00:50.195Z,1292.00
2024-01-30T12:01:50.323Z,1288.00
2024-01-30T12:02:50.291Z,1281.00
2024-01-30T12:03:50.383Z,1269.00
2024-01-30T12:04:50.433Z,1258.00
2024-01-30T12:05:50.516Z,1249.00
2024-01-30T12:06:50.738Z,1243.00
2024-01-30T12:07:50.762Z,1234.00
2024-01-30T12:08:50.692Z,1234.00
2024-01-30T12:09:50.785Z,1229.00
2024-01-30T12:10:50.808Z,1229.00
2024-01-30T12:11:50.861Z,1224.00
2024-01-30T12:12:51.012Z,1223.00
2024-01-30T12:13:50.959Z,1218.00
2024-01-30T12:14:51.024Z,1215.00
2024-01-30T12:15:51.135Z,1209.00
2024-01-30T12:16:51.137Z,1199.00
2024-01-30T12:17:51.255Z,1193.00
2024-01-30T12:18:53.192Z,1188.00